Kagamaru — JD3049 — position and weather

sailwx.info

Track history (hours):
 
Tides and Currents Weather Stations Pressure Air Temp Water Temp Dewpoint Dewpoint Depression Visibility Wind Speed Wind Dir Waves Ship Positions

Kagamaru

Last reported at 2017-Sep-24 23:00 UTC. Time now 2017-Sep-24 23:17 UTC.
Position N 35°24' E 139°41'.

Length 34 m; draft 3.6 m.

Type: Tug. MMSI: 431001272.

Date/timePositionNaut miles runAvg speedWind from/ knotsBaromVisibWave heightAir tempDewpointWater temp
2017-Sep-24 23:00N 35°24' E 139°41'1 2.9
2017-Sep-24 22:31N 35°23' E 139°42'1 1.1
2017-Sep-24 22:00N 35°22' E 139°42'3 6.0
2017-Sep-24 21:30N 35°25' E 139°42'3 5.3
2017-Sep-24 21:00N 35°27' E 139°39'0 0.0
2017-Sep-24 20:30N 35°27' E 139°39'0 0.0
2017-Sep-24 20:00N 35°27' E 139°39'0 0.0
2017-Sep-24 19:30N 35°27' E 139°39'0 0.0
2017-Sep-24 19:00N 35°27' E 139°39'0 0.0
2017-Sep-24 18:30N 35°27' E 139°39'0 0.0
2017-Sep-24 18:00N 35°27' E 139°39'0 0.0
2017-Sep-24 17:30N 35°27' E 139°39'0 0.0
2017-Sep-24 17:00N 35°27' E 139°39'0 0.0
2017-Sep-24 16:30N 35°27' E 139°39'0 0.0
2017-Sep-24 16:01N 35°27' E 139°39'0 0.0
2017-Sep-24 15:30N 35°27' E 139°39'0 0.0
2017-Sep-24 15:00N 35°27' E 139°39'0 0.0
2017-Sep-24 14:30N 35°27' E 139°39'0 0.0
2017-Sep-24 14:00N 35°27' E 139°39'0 0.0
2017-Sep-24 13:31N 35°27' E 139°39'0 0.0
2017-Sep-24 13:00N 35°27' E 139°39'0 0.0
2017-Sep-24 12:30N 35°27' E 139°39'0 0.0
2017-Sep-24 12:00N 35°27' E 139°39'0 0.0
2017-Sep-24 11:30N 35°27' E 139°39'0 0.0
2017-Sep-24 11:00N 35°27' E 139°39'0 0.0
2017-Sep-24 10:30N 35°27' E 139°39'0 0.0
2017-Sep-24 10:00N 35°27' E 139°39'0 0.0
2017-Sep-24 09:30N 35°27' E 139°39'0 0.0
2017-Sep-24 09:00N 35°27' E 139°39'0 0.0
2017-Sep-24 08:31N 35°27' E 139°39'0 0.0
2017-Sep-24 08:00N 35°27' E 139°39'0 0.0
2017-Sep-24 07:30N 35°27' E 139°39'0 0.0
2017-Sep-24 07:00N 35°27' E 139°39'0 0.0
2017-Sep-24 06:31N 35°27' E 139°39'0 0.0
2017-Sep-24 06:00N 35°27' E 139°39'0 0.0
2017-Sep-24 05:30N 35°27' E 139°39'0 0.0
2017-Sep-24 05:00N 35°27' E 139°39'0 0.0
2017-Sep-24 04:30N 35°27' E 139°39'0 0.0
2017-Sep-24 04:00N 35°27' E 139°39'0 0.0
2017-Sep-24 03:30N 35°27' E 139°39'0 0.0
2017-Sep-24 03:01N 35°27' E 139°39'0 0.0
2017-Sep-24 02:30N 35°27' E 139°39'0 0.0
2017-Sep-24 02:00N 35°27' E 139°39'0 0.0
2017-Sep-24 01:30N 35°27' E 139°39'2 3.4
2017-Sep-24 01:00N 35°27' E 139°41'1 1.8
2017-Sep-24 00:30N 35°26' E 139°42'1 1.9
2017-Sep-24 00:00N 35°26' E 139°42'1 1.3
2017-Sep-23 23:30N 35°26' E 139°42'1 2.0
2017-Sep-23 23:00N 35°27' E 139°42'1 2.0
2017-Sep-23 22:30N 35°28' E 139°42'1 2.8
2017-Sep-23 22:00N 35°27' E 139°43'0 0.7
2017-Sep-23 21:30N 35°27' E 139°43'3 6.5
2017-Sep-23 21:00N 35°27' E 139°39'0 0.0
2017-Sep-23 20:30N 35°27' E 139°39'0 0.0
2017-Sep-23 20:00N 35°27' E 139°39'0 0.0
2017-Sep-22 02:00N 35°27' E 139°39'0 0.0
2017-Sep-22 01:30N 35°27' E 139°39'0 0.0
2017-Sep-22 01:00N 35°27' E 139°39'0 0.0
2017-Sep-22 00:31N 35°27' E 139°39'0 0.0
2017-Sep-22 00:01N 35°27' E 139°39'0 0.0
2017-Sep-21 23:30N 35°27' E 139°39'0 0.0
2017-Sep-21 23:00N 35°27' E 139°39'0 0.6
2017-Sep-21 22:30N 35°27' E 139°39'2 3.4
2017-Sep-21 22:00N 35°26' E 139°41'1 2.4
2017-Sep-21 21:31N 35°26' E 139°42'1 1.2
2017-Sep-21 21:00N 35°26' E 139°41'0 0.0
2017-Sep-21 20:30N 35°26' E 139°41'0 0.0
2017-Sep-21 20:00N 35°26' E 139°41'0 0.0
2017-Sep-21 19:30N 35°26' E 139°41'0 0.0
2017-Sep-21 19:00N 35°26' E 139°41'0 0.0
2017-Sep-21 18:30N 35°26' E 139°41'0 0.1
2017-Sep-21 18:00N 35°26' E 139°42'1 1.5
2017-Sep-21 17:30N 35°27' E 139°41'0 0.4
2017-Sep-21 17:01N 35°27' E 139°41'0 0.0
2017-Sep-21 16:30N 35°27' E 139°41'0 0.0
2017-Sep-21 16:00N 35°27' E 139°41'0 0.0
2017-Sep-21 15:30N 35°27' E 139°41'0 0.0
2017-Sep-21 15:00N 35°27' E 139°41'0 0.0
2017-Sep-21 14:30N 35°27' E 139°41'0 0.6
2017-Sep-21 14:00N 35°26' E 139°41'0 0.1
2017-Sep-21 13:30N 35°26' E 139°41'0 0.5
2017-Sep-21 13:00N 35°27' E 139°41'0 0.0
2017-Sep-21 12:30N 35°27' E 139°41'0 0.0
2017-Sep-21 12:00N 35°27' E 139°41'0 0.0
2017-Sep-21 11:30N 35°27' E 139°41'0 0.0
2017-Sep-21 11:00N 35°27' E 139°41'0 1.0
2017-Sep-21 10:30N 35°26' E 139°41'1 1.5
2017-Sep-21 10:00N 35°27' E 139°41'2 3.2
2017-Sep-21 09:30N 35°26' E 139°43'2 3.6
2017-Sep-21 09:01N 35°27' E 139°45'1 2.8
2017-Sep-21 08:30N 35°28' E 139°44'1 2.7
2017-Sep-21 08:01N 35°28' E 139°42'1 1.2
2017-Sep-21 07:30N 35°28' E 139°41'1 2.8
2017-Sep-21 07:00N 35°28' E 139°40'1 1.5
2017-Sep-21 06:30N 35°27' E 139°39'0 0.0
2017-Sep-21 06:00N 35°27' E 139°39'0 0.0
2017-Sep-21 05:30N 35°27' E 139°39'0 0.0
2017-Sep-21 05:00N 35°27' E 139°39'0 0.0
2017-Sep-21 04:30N 35°27' E 139°39'0 0.0
2017-Sep-21 04:00N 35°27' E 139°39'0 0.0
2017-Sep-21 03:30N 35°27' E 139°39'0 0.0
2017-Sep-21 03:00N 35°27' E 139°39'0 0.0
2017-Sep-21 02:30N 35°27' E 139°39'0 0.0
2017-Sep-21 02:00N 35°27' E 139°39'0 0.0
2017-Sep-21 01:30N 35°27' E 139°39'0 0.0
2017-Sep-21 01:00N 35°27' E 139°39'0 0.0
2017-Sep-21 00:30N 35°27' E 139°39'0 0.0
2017-Sep-21 00:00N 35°27' E 139°39'0 0.0
2017-Sep-20 23:30N 35°27' E 139°39'0 0.0
2017-Sep-20 23:01N 35°27' E 139°39'0 0.0
2017-Sep-20 22:30N 35°27' E 139°39'0 0.0
2017-Sep-20 22:00N 35°27' E 139°39'0 0.0
2017-Sep-20 21:30N 35°27' E 139°39'0 0.0
2017-Sep-20 21:00N 35°27' E 139°39'0 0.0
2017-Sep-20 20:31N 35°27' E 139°39'0 0.0
2017-Sep-20 20:01N 35°27' E 139°39'0 0.0
2017-Sep-20 19:30N 35°27' E 139°39'0 0.0
2017-Sep-20 19:00N 35°27' E 139°39'0 0.0
2017-Sep-20 18:30N 35°27' E 139°39'0 0.0
2017-Sep-20 18:00N 35°27' E 139°39'0 0.0
2017-Sep-20 17:30N 35°27' E 139°39'0 0.0
2017-Sep-20 17:00N 35°27' E 139°39'0 0.0
2017-Sep-20 16:30N 35°27' E 139°39'0 0.0
2017-Sep-20 16:00N 35°27' E 139°39'0 0.0
2017-Sep-20 15:30N 35°27' E 139°39'0 0.0
2017-Sep-20 15:00N 35°27' E 139°39'0 0.0
2017-Sep-20 14:00N 35°27' E 139°39'0 0.0
2017-Sep-20 13:31N 35°27' E 139°39'0 0.0
2017-Sep-20 13:00N 35°27' E 139°39'0 0.0
2017-Sep-20 12:30N 35°27' E 139°39'0 0.0
2017-Sep-20 12:00N 35°27' E 139°39'0 0.0
2017-Sep-20 11:30N 35°27' E 139°39'0 0.0
2017-Sep-20 11:00N 35°27' E 139°39'0 0.0
2017-Sep-20 10:30N 35°27' E 139°39'0 0.0
2017-Sep-20 10:01N 35°27' E 139°39'0 0.0
2017-Sep-20 09:30N 35°27' E 139°39'0 0.0
2017-Sep-20 09:01N 35°27' E 139°39'0 0.0
2017-Sep-20 08:30N 35°27' E 139°39'0 0.0
2017-Sep-20 08:00N 35°27' E 139°39'0 0.0
2017-Sep-20 07:30N 35°27' E 139°39'0 0.0
2017-Sep-20 07:00N 35°27' E 139°39'0 0.0
2017-Sep-20 06:30N 35°27' E 139°39'0 0.0
2017-Sep-20 06:00N 35°27' E 139°39'0 0.0
2017-Sep-20 05:30N 35°27' E 139°39'0 0.0
2017-Sep-20 05:00N 35°27' E 139°39'0 0.0
2017-Sep-20 04:30N 35°27' E 139°39'1 1.1
2017-Sep-20 04:01N 35°27' E 139°39'4 7.7
2017-Sep-20 03:30N 35°28' E 139°44'3 5.4
2017-Sep-20 03:00N 35°29' E 139°47'0 0.2
2017-Sep-20 02:30N 35°29' E 139°47'2 5.0
2017-Sep-20 02:00N 35°28' E 139°44'4 7.8
2017-Sep-20 01:30N 35°27' E 139°40'0 0.5
2017-Sep-20 01:00N 35°27' E 139°39'0 0.0
2017-Sep-20 00:30N 35°27' E 139°39'1 1.1
2017-Sep-20 00:00N 35°27' E 139°40'3 6.7
2017-Sep-19 23:30N 35°24' E 139°42'1 1.5
2017-Sep-19 23:00N 35°24' E 139°41'1 2.3
2017-Sep-19 22:31N 35°23' E 139°41'1 2.3
2017-Sep-19 22:01N 35°24' E 139°42'4 7.1
2017-Sep-19 21:30N 35°27' E 139°40'1 1.1
2017-Sep-19 21:00N 35°27' E 139°39'0 0.0
2017-Sep-19 20:30N 35°27' E 139°39'0 0.0
2017-Sep-19 20:00N 35°27' E 139°39'0 0.0
2017-Sep-19 19:30N 35°27' E 139°39'0 0.0
2017-Sep-19 19:00N 35°27' E 139°39'0 0.0
2017-Sep-19 18:30N 35°27' E 139°39'0 0.0
2017-Sep-19 18:00N 35°27' E 139°39'0 0.0
2017-Sep-19 17:30N 35°27' E 139°39'0 0.0
2017-Sep-19 17:00N 35°27' E 139°39'0 0.0
2017-Sep-19 16:30N 35°27' E 139°39'0 0.0
2017-Sep-19 16:00N 35°27' E 139°39'0 0.0
2017-Sep-19 15:30N 35°27' E 139°39'0 0.0
2017-Sep-19 15:01N 35°27' E 139°39'0 0.0
2017-Sep-19 14:30N 35°27' E 139°39'0 0.0
2017-Sep-19 14:00N 35°27' E 139°39'0 0.0
2017-Sep-19 13:30N 35°27' E 139°39'0 0.0
2017-Sep-19 13:01N 35°27' E 139°39'0 0.0
2017-Sep-19 12:30N 35°27' E 139°39'0 0.0
2017-Sep-19 12:00N 35°27' E 139°39'0 0.0
2017-Sep-19 11:30N 35°27' E 139°39'0 0.0
2017-Sep-19 11:00N 35°27' E 139°39'0 0.0
2017-Sep-19 10:30N 35°27' E 139°39'0 0.0
2017-Sep-19 10:00N 35°27' E 139°39'0 0.0
2017-Sep-19 09:30N 35°27' E 139°39'0 0.0
2017-Sep-19 09:01N 35°27' E 139°39'0 0.0
2017-Sep-19 08:30N 35°27' E 139°39'0 0.0
2017-Sep-19 08:00N 35°27' E 139°39'0 0.0
2017-Sep-19 07:30N 35°27' E 139°39'4 7.8
2017-Sep-19 07:00N 35°29' E 139°43'1 1.0
2017-Sep-19 06:30N 35°30' E 139°43'0 0.8
2017-Sep-19 06:01N 35°29' E 139°43'1 2.3
2017-Sep-19 05:30N 35°29' E 139°42'2 3.4
2017-Sep-19 05:00N 35°28' E 139°44'0 0.0
2017-Sep-19 04:30N 35°28' E 139°44'0 0.0
2017-Sep-19 04:01N 35°28' E 139°44'0 0.3
2017-Sep-19 03:30N 35°28' E 139°44'1 1.9
2017-Sep-19 03:00N 35°29' E 139°44'0 0.2
2017-Sep-19 02:30N 35°29' E 139°45'1 1.3
2017-Sep-19 02:00N 35°28' E 139°45'0 0.3
2017-Sep-19 01:30N 35°28' E 139°45'1 1.1
2017-Sep-19 01:00N 35°29' E 139°45'0 0.3
2017-Sep-19 00:31N 35°29' E 139°44'1 1.9
2017-Sep-19 00:00N 35°28' E 139°44'4 7.5
2017-Sep-18 23:30N 35°27' E 139°40'0 0.9
2017-Sep-18 23:00N 35°27' E 139°39'0 0.0
2017-Sep-18 22:30N 35°27' E 139°39'0 0.0
2017-Sep-18 22:01N 35°27' E 139°39'0 0.0
2017-Sep-18 21:30N 35°27' E 139°39'0 0.0
2017-Sep-18 21:00N 35°27' E 139°39'0 0.0
2017-Sep-18 20:30N 35°27' E 139°39'0 0.0
2017-Sep-18 20:00N 35°27' E 139°39'0 0.0
2017-Sep-18 19:30N 35°27' E 139°39'0 0.0
2017-Sep-18 19:00N 35°27' E 139°39'0 0.0
2017-Sep-18 18:30N 35°27' E 139°39'0 0.0
2017-Sep-18 18:00N 35°27' E 139°39'0 0.0
2017-Sep-18 17:30N 35°27' E 139°39'0 0.0
2017-Sep-18 17:01N 35°27' E 139°39'0 0.0
2017-Sep-18 16:30N 35°27' E 139°39'0 0.0
2017-Sep-18 16:00N 35°27' E 139°39'0 0.0
2017-Sep-18 15:30N 35°27' E 139°39'0 0.0
2017-Sep-18 15:00N 35°27' E 139°39'0 0.0
2017-Sep-18 14:30N 35°27' E 139°39'0 0.0
2017-Sep-18 14:00N 35°27' E 139°39'0 0.0
2017-Sep-18 13:30N 35°27' E 139°39'0 0.0
2017-Sep-18 13:00N 35°27' E 139°39'0 0.0
2017-Sep-18 12:30N 35°27' E 139°39'0 0.0
2017-Sep-18 12:00N 35°27' E 139°39'0 0.0
2017-Sep-18 11:30N 35°27' E 139°39'0 0.0
2017-Sep-18 11:00N 35°27' E 139°39'0 0.0
2017-Sep-18 10:30N 35°27' E 139°39'0 0.0
2017-Sep-18 10:00N 35°27' E 139°39'0 0.0
2017-Sep-18 09:30N 35°27' E 139°39'0 0.0
2017-Sep-18 09:00N 35°27' E 139°39'0 0.0
2017-Sep-18 08:30N 35°27' E 139°39'0 0.0
2017-Sep-18 08:00N 35°27' E 139°39'0 0.0
2017-Sep-18 07:30N 35°27' E 139°39'0 0.0
2017-Sep-18 07:00N 35°27' E 139°39'0 0.0
2017-Sep-18 06:30N 35°27' E 139°39'0 0.0
2017-Sep-18 06:00N 35°27' E 139°39'0 0.0
2017-Sep-18 05:30N 35°27' E 139°39'0 0.0
2017-Sep-18 05:00N 35°27' E 139°39'0 0.0
2017-Sep-18 04:30N 35°27' E 139°39'0 0.0
2017-Sep-18 04:00N 35°27' E 139°39'0 0.0
2017-Sep-18 03:31N 35°27' E 139°39'0 0.0
2017-Sep-18 03:00N 35°27' E 139°39'0 0.0
2017-Sep-18 02:30N 35°27' E 139°39'0 0.0
2017-Sep-18 02:00N 35°27' E 139°39'0 0.0
2017-Sep-18 01:30N 35°27' E 139°39'0 0.0
2017-Sep-18 01:00N 35°27' E 139°39'0 0.0
2017-Sep-18 00:31N 35°27' E 139°39'0 0.0
2017-Sep-18 00:01N 35°27' E 139°39'0 0.0
2017-Sep-17 23:30N 35°27' E 139°39'0 0.0
2017-Sep-17 23:00N 35°27' E 139°39'0 0.0
2017-Sep-17 22:30N 35°27' E 139°39'0 0.0
2017-Sep-17 22:00N 35°27' E 139°39'0 0.0
2017-Sep-17 21:30N 35°27' E 139°39'0 0.0
2017-Sep-17 21:00N 35°27' E 139°39'0 0.0
2017-Sep-17 20:30N 35°27' E 139°39'0 0.0
2017-Sep-17 20:00N 35°27' E 139°39'0 0.0
2017-Sep-17 19:30N 35°27' E 139°39'0 0.0
2017-Sep-17 19:00N 35°27' E 139°39'0 0.4
2017-Sep-17 18:30N 35°27' E 139°39'3 5.4
2017-Sep-17 18:01N 35°25' E 139°41'0 0.2
2017-Sep-17 17:30N 35°25' E 139°41'3 6.5
2017-Sep-17 17:00N 35°28' E 139°42'510.8
2017-Sep-17 16:31N 35°25' E 139°47'713.2
2017-Sep-17 16:00N 35°18' E 139°44'713.1
2017-Sep-17 15:30N 35°12' E 139°47'2 3.6
2017-Sep-17 14:58N 35°14' E 139°45'4 8.7
2017-Sep-17 14:30N 35°17' E 139°44'5 8.9
2017-Sep-17 13:59N 35°22' E 139°41'1 2.7
2017-Sep-17 13:30N 35°23' E 139°41'0 0.0
2017-Sep-17 13:00N 35°23' E 139°41'0 0.0
2017-Sep-17 12:30N 35°23' E 139°41'0 0.0
2017-Sep-17 12:00N 35°23' E 139°41'5 9.9
2017-Sep-17 11:31N 35°27' E 139°44'2 4.0
2017-Sep-17 11:01N 35°29' E 139°44'0 0.0
2017-Sep-17 10:31N 35°29' E 139°44'0 0.1
2017-Sep-17 10:01N 35°29' E 139°44'0 0.7
2017-Sep-17 09:31N 35°29' E 139°45'1 2.1
2017-Sep-17 09:01N 35°28' E 139°46'0 0.2
2017-Sep-17 08:31N 35°28' E 139°45'2 3.2
2017-Sep-17 08:01N 35°27' E 139°44'1 2.3
2017-Sep-17 07:31N 35°27' E 139°42'0 0.0
2017-Sep-17 07:01N 35°27' E 139°42'0 0.0
2017-Sep-17 06:31N 35°27' E 139°42'0 0.5
2017-Sep-17 06:01N 35°27' E 139°42'3 7.0
2017-Sep-17 05:31N 35°24' E 139°41'0 0.5
2017-Sep-17 05:01N 35°24' E 139°41'2 3.3
2017-Sep-17 04:30N 35°23' E 139°42'3 6.9
2017-Sep-17 04:00N 35°26' E 139°42'2 4.3
2017-Sep-17 03:30N 35°27' E 139°39'0 0.0
2017-Sep-17 03:00N 35°27' E 139°39'0 0.0
2017-Sep-17 02:30N 35°27' E 139°39'0 0.0
2017-Sep-17 02:01N 35°27' E 139°39'0 0.0
2017-Sep-17 01:31N 35°27' E 139°39'0 0.0
2017-Sep-17 01:00N 35°27' E 139°39'0 0.0
2017-Sep-17 00:31N 35°27' E 139°39'0 0.0
2017-Sep-17 00:01N 35°27' E 139°39'0 0.0
2017-Sep-16 23:31N 35°27' E 139°39'0 0.0
2017-Sep-16 23:01N 35°27' E 139°39'0 0.0
2017-Sep-16 22:31N 35°27' E 139°39'0 0.0
2017-Sep-16 22:00N 35°27' E 139°39'0 0.0
2017-Sep-16 21:31N 35°27' E 139°39'0 0.0
2017-Sep-16 21:00N 35°27' E 139°39'0 0.0
2017-Sep-16 20:31N 35°27' E 139°39'0 0.0
2017-Sep-16 20:01N 35°27' E 139°39'0 0.0
2017-Sep-16 19:31N 35°27' E 139°39'0 0.0
2017-Sep-16 19:01N 35°27' E 139°39'0 0.0
2017-Sep-16 18:31N 35°27' E 139°39'0 0.0
2017-Sep-16 18:01N 35°27' E 139°39'0 0.0
2017-Sep-16 17:31N 35°27' E 139°39'0 0.0
2017-Sep-16 17:01N 35°27' E 139°39'0 0.0
2017-Sep-16 16:31N 35°27' E 139°39'0 0.0
2017-Sep-16 16:00N 35°27' E 139°39'0 0.0
2017-Sep-16 15:31N 35°27' E 139°39'0 0.0
2017-Sep-16 15:01N 35°27' E 139°39'0 0.0
2017-Sep-16 14:31N 35°27' E 139°39'0 0.0
2017-Sep-16 14:01N 35°27' E 139°39'0 0.0
2017-Sep-16 13:31N 35°27' E 139°39'0 0.0
2017-Sep-16 13:01N 35°27' E 139°39'0 0.0
2017-Sep-16 12:31N 35°27' E 139°39'0 0.0
2017-Sep-16 12:01N 35°27' E 139°39'3 5.0
2017-Sep-16 11:31N 35°27' E 139°42'2 5.0
2017-Sep-16 11:01N 35°29' E 139°44'0 0.1
2017-Sep-16 10:31N 35°29' E 139°44'1 1.3
2017-Sep-16 10:01N 35°28' E 139°45'2 3.5
2017-Sep-16 09:31N 35°27' E 139°45'0 0.2
2017-Sep-16 09:01N 35°27' E 139°45'0 0.7
2017-Sep-16 08:31N 35°27' E 139°46'2 4.3
2017-Sep-16 08:00N 35°29' E 139°45'0 0.0
2017-Sep-16 07:31N 35°29' E 139°45'0 0.1
2017-Sep-16 07:01N 35°29' E 139°45'3 5.0
2017-Sep-16 06:31N 35°27' E 139°42'2 4.9
2017-Sep-16 06:01N 35°27' E 139°39'0 0.0
2017-Sep-16 05:31N 35°27' E 139°39'0 0.0
2017-Sep-16 05:01N 35°27' E 139°39'0 0.0
2017-Sep-16 04:30N 35°27' E 139°39'0 0.0
2017-Sep-16 04:01N 35°27' E 139°39'0 0.0
2017-Sep-16 03:31N 35°27' E 139°39'0 0.0
2017-Sep-16 03:01N 35°27' E 139°39'0 0.0
2017-Sep-16 02:31N 35°27' E 139°39'1 1.3
2017-Sep-16 02:01N 35°27' E 139°40'1 2.7
2017-Sep-16 01:31N 35°28' E 139°41'1 1.6
2017-Sep-16 01:01N 35°28' E 139°42'1 1.7
2017-Sep-16 00:31N 35°28' E 139°42'0 0.2
2017-Sep-16 00:01N 35°28' E 139°42'0 0.0
2017-Sep-15 23:31N 35°28' E 139°42'0 0.8
2017-Sep-15 23:01N 35°28' E 139°42'1 1.6
2017-Sep-15 22:31N 35°27' E 139°43'1 2.2
2017-Sep-15 22:01N 35°27' E 139°43'3 6.7
2017-Sep-15 21:31N 35°27' E 139°39'0 0.0
2017-Sep-15 21:01N 35°27' E 139°39'0 0.0
2017-Sep-15 20:31N 35°27' E 139°39'0 0.0
2017-Sep-15 20:00N 35°27' E 139°39'0 0.0
2017-Sep-15 19:31N 35°27' E 139°39'0 0.0
2017-Sep-15 19:01N 35°27' E 139°39'0 0.0
2017-Sep-15 18:31N 35°27' E 139°39'0 0.0
2017-Sep-15 18:01N 35°27' E 139°39'0 0.0
2017-Sep-15 17:31N 35°27' E 139°39'0 0.0
2017-Sep-15 17:01N 35°27' E 139°39'0 0.0
2017-Sep-15 16:31N 35°27' E 139°39'0 0.0
2017-Sep-15 16:01N 35°27' E 139°39'0 0.0
2017-Sep-15 15:31N 35°27' E 139°39'0 0.0
2017-Sep-15 15:00N 35°27' E 139°39'0 0.0
2017-Sep-15 14:31N 35°27' E 139°39'0 0.0
2017-Sep-15 14:01N 35°27' E 139°39'0 0.0
2017-Sep-15 13:31N 35°27' E 139°39'0 0.0
2017-Sep-15 13:01N 35°27' E 139°39'0 0.0
2017-Sep-15 12:31N 35°27' E 139°39'0 0.0
2017-Sep-15 12:01N 35°27' E 139°39'0 0.0
2017-Sep-15 11:31N 35°27' E 139°39'0 0.0
2017-Sep-15 11:01N 35°27' E 139°39'0 0.0
2017-Sep-15 10:31N 35°27' E 139°39'0 0.0
2017-Sep-15 10:01N 35°27' E 139°39'0 0.0
2017-Sep-15 09:31N 35°27' E 139°39'0 0.0
2017-Sep-15 09:01N 35°27' E 139°39'0 0.0
2017-Sep-15 08:31N 35°27' E 139°39'0 0.0
2017-Sep-15 08:01N 35°27' E 139°39'2 3.0
2017-Sep-15 07:31N 35°27' E 139°41'1 1.6
2017-Sep-15 07:01N 35°26' E 139°41'0 0.2
2017-Sep-15 06:31N 35°26' E 139°41'1 2.9
2017-Sep-15 06:01N 35°27' E 139°39'0 0.0
2017-Sep-15 05:31N 35°27' E 139°39'0 0.0
2017-Sep-15 05:01N 35°27' E 139°39'0 0.0
2017-Sep-15 04:31N 35°27' E 139°39'0 0.0
2017-Sep-15 04:01N 35°27' E 139°39'3 5.2
2017-Sep-15 03:30N 35°25' E 139°42'2 4.1
2017-Sep-15 03:00N 35°24' E 139°40'1 1.0
2017-Sep-15 02:31N 35°24' E 139°41'4 7.9
2017-Sep-15 02:00N 35°27' E 139°44'5 9.1
2017-Sep-15 01:30N 35°31' E 139°46'0 0.0
2017-Sep-15 01:00N 35°31' E 139°46'0 0.5
2017-Sep-15 00:30N 35°31' E 139°46'2 3.4
2017-Sep-15 00:00N 35°30' E 139°48'1 1.3
2017-Sep-14 23:30N 35°29' E 139°47'2 3.2
2017-Sep-14 23:00N 35°29' E 139°45'  
Track history (hours):
 
Tides and Currents Weather Stations Pressure Air Temp Water Temp Dewpoint Dewpoint Depression Visibility Wind Speed Wind Dir Waves Ship Positions

Kagamaru

Last reported at 2017-Sep-24 23:00 UTC. Time now 2017-Sep-24 23:17 UTC.
Position N 35°24' E 139°41'.

Length 34 m; draft 3.6 m.

Type: Tug. MMSI: 431001272.

Date/timePositionNaut miles runAvg speedWind from/ knotsBaromVisibWave heightAir tempDewpointWater temp
2017-Sep-24 23:00N 35°24' E 139°41'1 2.9
2017-Sep-24 22:31N 35°23' E 139°42'1 1.1
2017-Sep-24 22:00N 35°22' E 139°42'3 6.0
2017-Sep-24 21:30N 35°25' E 139°42'3 5.3
2017-Sep-24 21:00N 35°27' E 139°39'0 0.0
2017-Sep-24 20:30N 35°27' E 139°39'0 0.0
2017-Sep-24 20:00N 35°27' E 139°39'0 0.0
2017-Sep-24 19:30N 35°27' E 139°39'0 0.0
2017-Sep-24 19:00N 35°27' E 139°39'0 0.0
2017-Sep-24 18:30N 35°27' E 139°39'0 0.0
2017-Sep-24 18:00N 35°27' E 139°39'0 0.0
2017-Sep-24 17:30N 35°27' E 139°39'0 0.0
2017-Sep-24 17:00N 35°27' E 139°39'0 0.0
2017-Sep-24 16:30N 35°27' E 139°39'0 0.0
2017-Sep-24 16:01N 35°27' E 139°39'0 0.0
2017-Sep-24 15:30N 35°27' E 139°39'0 0.0
2017-Sep-24 15:00N 35°27' E 139°39'0 0.0
2017-Sep-24 14:30N 35°27' E 139°39'0 0.0
2017-Sep-24 14:00N 35°27' E 139°39'0 0.0
2017-Sep-24 13:31N 35°27' E 139°39'0 0.0
2017-Sep-24 13:00N 35°27' E 139°39'0 0.0
2017-Sep-24 12:30N 35°27' E 139°39'0 0.0
2017-Sep-24 12:00N 35°27' E 139°39'0 0.0
2017-Sep-24 11:30N 35°27' E 139°39'0 0.0
2017-Sep-24 11:00N 35°27' E 139°39'0 0.0
2017-Sep-24 10:30N 35°27' E 139°39'0 0.0
2017-Sep-24 10:00N 35°27' E 139°39'0 0.0
2017-Sep-24 09:30N 35°27' E 139°39'0 0.0
2017-Sep-24 09:00N 35°27' E 139°39'0 0.0
2017-Sep-24 08:31N 35°27' E 139°39'0 0.0
2017-Sep-24 08:00N 35°27' E 139°39'0 0.0
2017-Sep-24 07:30N 35°27' E 139°39'0 0.0
2017-Sep-24 07:00N 35°27' E 139°39'0 0.0
2017-Sep-24 06:31N 35°27' E 139°39'0 0.0
2017-Sep-24 06:00N 35°27' E 139°39'0 0.0
2017-Sep-24 05:30N 35°27' E 139°39'0 0.0
2017-Sep-24 05:00N 35°27' E 139°39'0 0.0
2017-Sep-24 04:30N 35°27' E 139°39'0 0.0
2017-Sep-24 04:00N 35°27' E 139°39'0 0.0
2017-Sep-24 03:30N 35°27' E 139°39'0 0.0
2017-Sep-24 03:01N 35°27' E 139°39'0 0.0
2017-Sep-24 02:30N 35°27' E 139°39'0 0.0
2017-Sep-24 02:00N 35°27' E 139°39'0 0.0
2017-Sep-24 01:30N 35°27' E 139°39'2 3.4
2017-Sep-24 01:00N 35°27' E 139°41'1 1.8
2017-Sep-24 00:30N 35°26' E 139°42'1 1.9
2017-Sep-24 00:00N 35°26' E 139°42'1 1.3
2017-Sep-23 23:30N 35°26' E 139°42'1 2.0
2017-Sep-23 23:00N 35°27' E 139°42'1 2.0
2017-Sep-23 22:30N 35°28' E 139°42'1 2.8
2017-Sep-23 22:00N 35°27' E 139°43'0 0.7
2017-Sep-23 21:30N 35°27' E 139°43'3 6.5
2017-Sep-23 21:00N 35°27' E 139°39'0 0.0
2017-Sep-23 20:30N 35°27' E 139°39'0 0.0
2017-Sep-23 20:00N 35°27' E 139°39'0 0.0
2017-Sep-22 02:00N 35°27' E 139°39'0 0.0
2017-Sep-22 01:30N 35°27' E 139°39'0 0.0
2017-Sep-22 01:00N 35°27' E 139°39'0 0.0
2017-Sep-22 00:31N 35°27' E 139°39'0 0.0
2017-Sep-22 00:01N 35°27' E 139°39'0 0.0
2017-Sep-21 23:30N 35°27' E 139°39'0 0.0
2017-Sep-21 23:00N 35°27' E 139°39'0 0.6
2017-Sep-21 22:30N 35°27' E 139°39'2 3.4
2017-Sep-21 22:00N 35°26' E 139°41'1 2.4
2017-Sep-21 21:31N 35°26' E 139°42'1 1.2
2017-Sep-21 21:00N 35°26' E 139°41'0 0.0
2017-Sep-21 20:30N 35°26' E 139°41'0 0.0
2017-Sep-21 20:00N 35°26' E 139°41'0 0.0
2017-Sep-21 19:30N 35°26' E 139°41'0 0.0
2017-Sep-21 19:00N 35°26' E 139°41'0 0.0
2017-Sep-21 18:30N 35°26' E 139°41'0 0.1
2017-Sep-21 18:00N 35°26' E 139°42'1 1.5
2017-Sep-21 17:30N 35°27' E 139°41'0 0.4
2017-Sep-21 17:01N 35°27' E 139°41'0 0.0
2017-Sep-21 16:30N 35°27' E 139°41'0 0.0
2017-Sep-21 16:00N 35°27' E 139°41'0 0.0
2017-Sep-21 15:30N 35°27' E 139°41'0 0.0
2017-Sep-21 15:00N 35°27' E 139°41'0 0.0
2017-Sep-21 14:30N 35°27' E 139°41'0 0.6
2017-Sep-21 14:00N 35°26' E 139°41'0 0.1
2017-Sep-21 13:30N 35°26' E 139°41'0 0.5
2017-Sep-21 13:00N 35°27' E 139°41'0 0.0
2017-Sep-21 12:30N 35°27' E 139°41'0 0.0
2017-Sep-21 12:00N 35°27' E 139°41'0 0.0
2017-Sep-21 11:30N 35°27' E 139°41'0 0.0
2017-Sep-21 11:00N 35°27' E 139°41'0 1.0
2017-Sep-21 10:30N 35°26' E 139°41'1 1.5
2017-Sep-21 10:00N 35°27' E 139°41'2 3.2
2017-Sep-21 09:30N 35°26' E 139°43'2 3.6
2017-Sep-21 09:01N 35°27' E 139°45'1 2.8
2017-Sep-21 08:30N 35°28' E 139°44'1 2.7
2017-Sep-21 08:01N 35°28' E 139°42'1 1.2
2017-Sep-21 07:30N 35°28' E 139°41'1 2.8
2017-Sep-21 07:00N 35°28' E 139°40'1 1.5
2017-Sep-21 06:30N 35°27' E 139°39'0 0.0
2017-Sep-21 06:00N 35°27' E 139°39'0 0.0
2017-Sep-21 05:30N 35°27' E 139°39'0 0.0
2017-Sep-21 05:00N 35°27' E 139°39'0 0.0
2017-Sep-21 04:30N 35°27' E 139°39'0 0.0
2017-Sep-21 04:00N 35°27' E 139°39'0 0.0
2017-Sep-21 03:30N 35°27' E 139°39'0 0.0
2017-Sep-21 03:00N 35°27' E 139°39'0 0.0
2017-Sep-21 02:30N 35°27' E 139°39'0 0.0
2017-Sep-21 02:00N 35°27' E 139°39'0 0.0
2017-Sep-21 01:30N 35°27' E 139°39'0 0.0
2017-Sep-21 01:00N 35°27' E 139°39'0 0.0
2017-Sep-21 00:30N 35°27' E 139°39'0 0.0
2017-Sep-21 00:00N 35°27' E 139°39'0 0.0
2017-Sep-20 23:30N 35°27' E 139°39'0 0.0
2017-Sep-20 23:01N 35°27' E 139°39'0 0.0
2017-Sep-20 22:30N 35°27' E 139°39'0 0.0
2017-Sep-20 22:00N 35°27' E 139°39'0 0.0
2017-Sep-20 21:30N 35°27' E 139°39'0 0.0
2017-Sep-20 21:00N 35°27' E 139°39'0 0.0
2017-Sep-20 20:31N 35°27' E 139°39'0 0.0
2017-Sep-20 20:01N 35°27' E 139°39'0 0.0
2017-Sep-20 19:30N 35°27' E 139°39'0 0.0
2017-Sep-20 19:00N 35°27' E 139°39'0 0.0
2017-Sep-20 18:30N 35°27' E 139°39'0 0.0
2017-Sep-20 18:00N 35°27' E 139°39'0 0.0
2017-Sep-20 17:30N 35°27' E 139°39'0 0.0
2017-Sep-20 17:00N 35°27' E 139°39'0 0.0
2017-Sep-20 16:30N 35°27' E 139°39'0 0.0
2017-Sep-20 16:00N 35°27' E 139°39'0 0.0
2017-Sep-20 15:30N 35°27' E 139°39'0 0.0
2017-Sep-20 15:00N 35°27' E 139°39'0 0.0
2017-Sep-20 14:00N 35°27' E 139°39'0 0.0
2017-Sep-20 13:31N 35°27' E 139°39'0 0.0
2017-Sep-20 13:00N 35°27' E 139°39'0 0.0
2017-Sep-20 12:30N 35°27' E 139°39'0 0.0
2017-Sep-20 12:00N 35°27' E 139°39'0 0.0
2017-Sep-20 11:30N 35°27' E 139°39'0 0.0
2017-Sep-20 11:00N 35°27' E 139°39'0 0.0
2017-Sep-20 10:30N 35°27' E 139°39'0 0.0
2017-Sep-20 10:01N 35°27' E 139°39'0 0.0
2017-Sep-20 09:30N 35°27' E 139°39'0 0.0
2017-Sep-20 09:01N 35°27' E 139°39'0 0.0
2017-Sep-20 08:30N 35°27' E 139°39'0 0.0
2017-Sep-20 08:00N 35°27' E 139°39'0 0.0
2017-Sep-20 07:30N 35°27' E 139°39'0 0.0
2017-Sep-20 07:00N 35°27' E 139°39'0 0.0
2017-Sep-20 06:30N 35°27' E 139°39'0 0.0
2017-Sep-20 06:00N 35°27' E 139°39'0 0.0
2017-Sep-20 05:30N 35°27' E 139°39'0 0.0
2017-Sep-20 05:00N 35°27' E 139°39'0 0.0
2017-Sep-20 04:30N 35°27' E 139°39'1 1.1
2017-Sep-20 04:01N 35°27' E 139°39'4 7.7
2017-Sep-20 03:30N 35°28' E 139°44'3 5.4
2017-Sep-20 03:00N 35°29' E 139°47'0 0.2
2017-Sep-20 02:30N 35°29' E 139°47'2 5.0
2017-Sep-20 02:00N 35°28' E 139°44'4 7.8
2017-Sep-20 01:30N 35°27' E 139°40'0 0.5
2017-Sep-20 01:00N 35°27' E 139°39'0 0.0
2017-Sep-20 00:30N 35°27' E 139°39'1 1.1
2017-Sep-20 00:00N 35°27' E 139°40'3 6.7
2017-Sep-19 23:30N 35°24' E 139°42'1 1.5
2017-Sep-19 23:00N 35°24' E 139°41'1 2.3
2017-Sep-19 22:31N 35°23' E 139°41'1 2.3
2017-Sep-19 22:01N 35°24' E 139°42'4 7.1
2017-Sep-19 21:30N 35°27' E 139°40'1 1.1
2017-Sep-19 21:00N 35°27' E 139°39'0 0.0
2017-Sep-19 20:30N 35°27' E 139°39'0 0.0
2017-Sep-19 20:00N 35°27' E 139°39'0 0.0
2017-Sep-19 19:30N 35°27' E 139°39'0 0.0
2017-Sep-19 19:00N 35°27' E 139°39'0 0.0
2017-Sep-19 18:30N 35°27' E 139°39'0 0.0
2017-Sep-19 18:00N 35°27' E 139°39'0 0.0
2017-Sep-19 17:30N 35°27' E 139°39'0 0.0
2017-Sep-19 17:00N 35°27' E 139°39'0 0.0
2017-Sep-19 16:30N 35°27' E 139°39'0 0.0
2017-Sep-19 16:00N 35°27' E 139°39'0 0.0
2017-Sep-19 15:30N 35°27' E 139°39'0 0.0
2017-Sep-19 15:01N 35°27' E 139°39'0 0.0
2017-Sep-19 14:30N 35°27' E 139°39'0 0.0
2017-Sep-19 14:00N 35°27' E 139°39'0 0.0
2017-Sep-19 13:30N 35°27' E 139°39'0 0.0
2017-Sep-19 13:01N 35°27' E 139°39'0 0.0
2017-Sep-19 12:30N 35°27' E 139°39'0 0.0
2017-Sep-19 12:00N 35°27' E 139°39'0 0.0
2017-Sep-19 11:30N 35°27' E 139°39'0 0.0
2017-Sep-19 11:00N 35°27' E 139°39'0 0.0
2017-Sep-19 10:30N 35°27' E 139°39'0 0.0
2017-Sep-19 10:00N 35°27' E 139°39'0 0.0
2017-Sep-19 09:30N 35°27' E 139°39'0 0.0
2017-Sep-19 09:01N 35°27' E 139°39'0 0.0
2017-Sep-19 08:30N 35°27' E 139°39'0 0.0
2017-Sep-19 08:00N 35°27' E 139°39'0 0.0
2017-Sep-19 07:30N 35°27' E 139°39'4 7.8
2017-Sep-19 07:00N 35°29' E 139°43'1 1.0
2017-Sep-19 06:30N 35°30' E 139°43'0 0.8
2017-Sep-19 06:01N 35°29' E 139°43'1 2.3
2017-Sep-19 05:30N 35°29' E 139°42'2 3.4
2017-Sep-19 05:00N 35°28' E 139°44'0 0.0
2017-Sep-19 04:30N 35°28' E 139°44'0 0.0
2017-Sep-19 04:01N 35°28' E 139°44'0 0.3
2017-Sep-19 03:30N 35°28' E 139°44'1 1.9
2017-Sep-19 03:00N 35°29' E 139°44'0 0.2
2017-Sep-19 02:30N 35°29' E 139°45'1 1.3
2017-Sep-19 02:00N 35°28' E 139°45'0 0.3
2017-Sep-19 01:30N 35°28' E 139°45'1 1.1
2017-Sep-19 01:00N 35°29' E 139°45'0 0.3
2017-Sep-19 00:31N 35°29' E 139°44'1 1.9
2017-Sep-19 00:00N 35°28' E 139°44'4 7.5
2017-Sep-18 23:30N 35°27' E 139°40'0 0.9
2017-Sep-18 23:00N 35°27' E 139°39'0 0.0
2017-Sep-18 22:30N 35°27' E 139°39'0 0.0
2017-Sep-18 22:01N 35°27' E 139°39'0 0.0
2017-Sep-18 21:30N 35°27' E 139°39'0 0.0
2017-Sep-18 21:00N 35°27' E 139°39'0 0.0
2017-Sep-18 20:30N 35°27' E 139°39'0 0.0
2017-Sep-18 20:00N 35°27' E 139°39'0 0.0
2017-Sep-18 19:30N 35°27' E 139°39'0 0.0
2017-Sep-18 19:00N 35°27' E 139°39'0 0.0
2017-Sep-18 18:30N 35°27' E 139°39'0 0.0
2017-Sep-18 18:00N 35°27' E 139°39'0 0.0
2017-Sep-18 17:30N 35°27' E 139°39'0 0.0
2017-Sep-18 17:01N 35°27' E 139°39'0 0.0
2017-Sep-18 16:30N 35°27' E 139°39'0 0.0
2017-Sep-18 16:00N 35°27' E 139°39'0 0.0
2017-Sep-18 15:30N 35°27' E 139°39'0 0.0
2017-Sep-18 15:00N 35°27' E 139°39'0 0.0
2017-Sep-18 14:30N 35°27' E 139°39'0 0.0
2017-Sep-18 14:00N 35°27' E 139°39'0 0.0
2017-Sep-18 13:30N 35°27' E 139°39'0 0.0
2017-Sep-18 13:00N 35°27' E 139°39'0 0.0
2017-Sep-18 12:30N 35°27' E 139°39'0 0.0
2017-Sep-18 12:00N 35°27' E 139°39'0 0.0
2017-Sep-18 11:30N 35°27' E 139°39'0 0.0
2017-Sep-18 11:00N 35°27' E 139°39'0 0.0
2017-Sep-18 10:30N 35°27' E 139°39'0 0.0
2017-Sep-18 10:00N 35°27' E 139°39'0 0.0
2017-Sep-18 09:30N 35°27' E 139°39'0 0.0
2017-Sep-18 09:00N 35°27' E 139°39'0 0.0
2017-Sep-18 08:30N 35°27' E 139°39'0 0.0
2017-Sep-18 08:00N 35°27' E 139°39'0 0.0
2017-Sep-18 07:30N 35°27' E 139°39'0 0.0
2017-Sep-18 07:00N 35°27' E 139°39'0 0.0
2017-Sep-18 06:30N 35°27' E 139°39'0 0.0
2017-Sep-18 06:00N 35°27' E 139°39'0 0.0
2017-Sep-18 05:30N 35°27' E 139°39'0 0.0
2017-Sep-18 05:00N 35°27' E 139°39'0 0.0
2017-Sep-18 04:30N 35°27' E 139°39'0 0.0
2017-Sep-18 04:00N 35°27' E 139°39'0 0.0
2017-Sep-18 03:31N 35°27' E 139°39'0 0.0
2017-Sep-18 03:00N 35°27' E 139°39'0 0.0
2017-Sep-18 02:30N 35°27' E 139°39'0 0.0
2017-Sep-18 02:00N 35°27' E 139°39'0 0.0
2017-Sep-18 01:30N 35°27' E 139°39'0 0.0
2017-Sep-18 01:00N 35°27' E 139°39'0 0.0
2017-Sep-18 00:31N 35°27' E 139°39'0 0.0
2017-Sep-18 00:01N 35°27' E 139°39'0 0.0
2017-Sep-17 23:30N 35°27' E 139°39'0 0.0
2017-Sep-17 23:00N 35°27' E 139°39'0 0.0
2017-Sep-17 22:30N 35°27' E 139°39'0 0.0
2017-Sep-17 22:00N 35°27' E 139°39'0 0.0
2017-Sep-17 21:30N 35°27' E 139°39'0 0.0
2017-Sep-17 21:00N 35°27' E 139°39'0 0.0
2017-Sep-17 20:30N 35°27' E 139°39'0 0.0
2017-Sep-17 20:00N 35°27' E 139°39'0 0.0
2017-Sep-17 19:30N 35°27' E 139°39'0 0.0
2017-Sep-17 19:00N 35°27' E 139°39'0 0.4
2017-Sep-17 18:30N 35°27' E 139°39'3 5.4
2017-Sep-17 18:01N 35°25' E 139°41'0 0.2
2017-Sep-17 17:30N 35°25' E 139°41'3 6.5
2017-Sep-17 17:00N 35°28' E 139°42'510.8
2017-Sep-17 16:31N 35°25' E 139°47'713.2
2017-Sep-17 16:00N 35°18' E 139°44'713.1
2017-Sep-17 15:30N 35°12' E 139°47'2 3.6
2017-Sep-17 14:58N 35°14' E 139°45'4 8.7
2017-Sep-17 14:30N 35°17' E 139°44'5 8.9
2017-Sep-17 13:59N 35°22' E 139°41'1 2.7
2017-Sep-17 13:30N 35°23' E 139°41'0 0.0
2017-Sep-17 13:00N 35°23' E 139°41'0 0.0
2017-Sep-17 12:30N 35°23' E 139°41'0 0.0
2017-Sep-17 12:00N 35°23' E 139°41'5 9.9
2017-Sep-17 11:31N 35°27' E 139°44'2 4.0
2017-Sep-17 11:01N 35°29' E 139°44'0 0.0
2017-Sep-17 10:31N 35°29' E 139°44'0 0.1
2017-Sep-17 10:01N 35°29' E 139°44'0 0.7
2017-Sep-17 09:31N 35°29' E 139°45'1 2.1
2017-Sep-17 09:01N 35°28' E 139°46'0 0.2
2017-Sep-17 08:31N 35°28' E 139°45'2 3.2
2017-Sep-17 08:01N 35°27' E 139°44'1 2.3
2017-Sep-17 07:31N 35°27' E 139°42'0 0.0
2017-Sep-17 07:01N 35°27' E 139°42'0 0.0
2017-Sep-17 06:31N 35°27' E 139°42'0 0.5
2017-Sep-17 06:01N 35°27' E 139°42'3 7.0
2017-Sep-17 05:31N 35°24' E 139°41'0 0.5
2017-Sep-17 05:01N 35°24' E 139°41'2 3.3
2017-Sep-17 04:30N 35°23' E 139°42'3 6.9
2017-Sep-17 04:00N 35°26' E 139°42'2 4.3
2017-Sep-17 03:30N 35°27' E 139°39'0 0.0
2017-Sep-17 03:00N 35°27' E 139°39'0 0.0
2017-Sep-17 02:30N 35°27' E 139°39'0 0.0
2017-Sep-17 02:01N 35°27' E 139°39'0 0.0
2017-Sep-17 01:31N 35°27' E 139°39'0 0.0
2017-Sep-17 01:00N 35°27' E 139°39'0 0.0
2017-Sep-17 00:31N 35°27' E 139°39'0 0.0
2017-Sep-17 00:01N 35°27' E 139°39'0 0.0
2017-Sep-16 23:31N 35°27' E 139°39'0 0.0
2017-Sep-16 23:01N 35°27' E 139°39'0 0.0
2017-Sep-16 22:31N 35°27' E 139°39'0 0.0
2017-Sep-16 22:00N 35°27' E 139°39'0 0.0
2017-Sep-16 21:31N 35°27' E 139°39'0 0.0
2017-Sep-16 21:00N 35°27' E 139°39'0 0.0
2017-Sep-16 20:31N 35°27' E 139°39'0 0.0
2017-Sep-16 20:01N 35°27' E 139°39'0 0.0
2017-Sep-16 19:31N 35°27' E 139°39'0 0.0
2017-Sep-16 19:01N 35°27' E 139°39'0 0.0
2017-Sep-16 18:31N 35°27' E 139°39'0 0.0
2017-Sep-16 18:01N 35°27' E 139°39'0 0.0
2017-Sep-16 17:31N 35°27' E 139°39'0 0.0
2017-Sep-16 17:01N 35°27' E 139°39'0 0.0
2017-Sep-16 16:31N 35°27' E 139°39'0 0.0
2017-Sep-16 16:00N 35°27' E 139°39'0 0.0
2017-Sep-16 15:31N 35°27' E 139°39'0 0.0
2017-Sep-16 15:01N 35°27' E 139°39'0 0.0
2017-Sep-16 14:31N 35°27' E 139°39'0 0.0
2017-Sep-16 14:01N 35°27' E 139°39'0 0.0
2017-Sep-16 13:31N 35°27' E 139°39'0 0.0
2017-Sep-16 13:01N 35°27' E 139°39'0 0.0
2017-Sep-16 12:31N 35°27' E 139°39'0 0.0
2017-Sep-16 12:01N 35°27' E 139°39'3 5.0
2017-Sep-16 11:31N 35°27' E 139°42'2 5.0
2017-Sep-16 11:01N 35°29' E 139°44'0 0.1
2017-Sep-16 10:31N 35°29' E 139°44'1 1.3
2017-Sep-16 10:01N 35°28' E 139°45'2 3.5
2017-Sep-16 09:31N 35°27' E 139°45'0 0.2
2017-Sep-16 09:01N 35°27' E 139°45'0 0.7
2017-Sep-16 08:31N 35°27' E 139°46'2 4.3
2017-Sep-16 08:00N 35°29' E 139°45'0 0.0
2017-Sep-16 07:31N 35°29' E 139°45'0 0.1
2017-Sep-16 07:01N 35°29' E 139°45'3 5.0
2017-Sep-16 06:31N 35°27' E 139°42'2 4.9
2017-Sep-16 06:01N 35°27' E 139°39'0 0.0
2017-Sep-16 05:31N 35°27' E 139°39'0 0.0
2017-Sep-16 05:01N 35°27' E 139°39'0 0.0
2017-Sep-16 04:30N 35°27' E 139°39'0 0.0
2017-Sep-16 04:01N 35°27' E 139°39'0 0.0
2017-Sep-16 03:31N 35°27' E 139°39'0 0.0
2017-Sep-16 03:01N 35°27' E 139°39'0 0.0
2017-Sep-16 02:31N 35°27' E 139°39'1 1.3
2017-Sep-16 02:01N 35°27' E 139°40'1 2.7
2017-Sep-16 01:31N 35°28' E 139°41'1 1.6
2017-Sep-16 01:01N 35°28' E 139°42'1 1.7
2017-Sep-16 00:31N 35°28' E 139°42'0 0.2
2017-Sep-16 00:01N 35°28' E 139°42'0 0.0
2017-Sep-15 23:31N 35°28' E 139°42'0 0.8
2017-Sep-15 23:01N 35°28' E 139°42'1 1.6
2017-Sep-15 22:31N 35°27' E 139°43'1 2.2
2017-Sep-15 22:01N 35°27' E 139°43'3 6.7
2017-Sep-15 21:31N 35°27' E 139°39'0 0.0
2017-Sep-15 21:01N 35°27' E 139°39'0 0.0
2017-Sep-15 20:31N 35°27' E 139°39'0 0.0
2017-Sep-15 20:00N 35°27' E 139°39'0 0.0
2017-Sep-15 19:31N 35°27' E 139°39'0 0.0
2017-Sep-15 19:01N 35°27' E 139°39'0 0.0
2017-Sep-15 18:31N 35°27' E 139°39'0 0.0
2017-Sep-15 18:01N 35°27' E 139°39'0 0.0
2017-Sep-15 17:31N 35°27' E 139°39'0 0.0
2017-Sep-15 17:01N 35°27' E 139°39'0 0.0
2017-Sep-15 16:31N 35°27' E 139°39'0 0.0
2017-Sep-15 16:01N 35°27' E 139°39'0 0.0
2017-Sep-15 15:31N 35°27' E 139°39'0 0.0
2017-Sep-15 15:00N 35°27' E 139°39'0 0.0
2017-Sep-15 14:31N 35°27' E 139°39'0 0.0
2017-Sep-15 14:01N 35°27' E 139°39'0 0.0
2017-Sep-15 13:31N 35°27' E 139°39'0 0.0
2017-Sep-15 13:01N 35°27' E 139°39'0 0.0
2017-Sep-15 12:31N 35°27' E 139°39'0 0.0
2017-Sep-15 12:01N 35°27' E 139°39'0 0.0
2017-Sep-15 11:31N 35°27' E 139°39'0 0.0
2017-Sep-15 11:01N 35°27' E 139°39'0 0.0
2017-Sep-15 10:31N 35°27' E 139°39'0 0.0
2017-Sep-15 10:01N 35°27' E 139°39'0 0.0
2017-Sep-15 09:31N 35°27' E 139°39'0 0.0
2017-Sep-15 09:01N 35°27' E 139°39'0 0.0
2017-Sep-15 08:31N 35°27' E 139°39'0 0.0
2017-Sep-15 08:01N 35°27' E 139°39'2 3.0
2017-Sep-15 07:31N 35°27' E 139°41'1 1.6
2017-Sep-15 07:01N 35°26' E 139°41'0 0.2
2017-Sep-15 06:31N 35°26' E 139°41'1 2.9
2017-Sep-15 06:01N 35°27' E 139°39'0 0.0
2017-Sep-15 05:31N 35°27' E 139°39'0 0.0
2017-Sep-15 05:01N 35°27' E 139°39'0 0.0
2017-Sep-15 04:31N 35°27' E 139°39'0 0.0
2017-Sep-15 04:01N 35°27' E 139°39'3 5.2
2017-Sep-15 03:30N 35°25' E 139°42'2 4.1
2017-Sep-15 03:00N 35°24' E 139°40'1 1.0
2017-Sep-15 02:31N 35°24' E 139°41'4 7.9
2017-Sep-15 02:00N 35°27' E 139°44'5 9.1
2017-Sep-15 01:30N 35°31' E 139°46'0 0.0
2017-Sep-15 01:00N 35°31' E 139°46'0 0.5
2017-Sep-15 00:30N 35°31' E 139°46'2 3.4
2017-Sep-15 00:00N 35°30' E 139°48'1 1.3
2017-Sep-14 23:30N 35°29' E 139°47'2 3.2
2017-Sep-14 23:00N 35°29' E 139°45'  

Dump ship's entire track history